Time;durP1;ratioP1;P1;durP2;ratioP2;P2;SDS_P1;SDS_P2;PMS_P1;PMS_P2;Temp;Humidity;BMP_temperature;BMP_pressure;BME280_temperature;BME280_humidity;BME280_pressure;Samples;Min_cycle;Max_cycle;Signal;HPM_P1;HPM_P2
2023/07/01 00:01:22;;;;;;;1999.90;999.90;;;18.80;99.90;;;;;;5014612;28;20038;-75
2023/07/01 00:03:48;;;;;;;1999.90;999.90;;;18.70;99.90;;;;;;5013905;28;21319;-75
2023/07/01 00:06:14;;;;;;;1999.90;999.90;;;18.60;99.90;;;;;;5014721;28;20393;-75
2023/07/01 00:08:40;;;;;;;1999.90;999.90;;;18.50;99.90;;;;;;5014685;28;20070;-75
2023/07/01 00:11:06;;;;;;;1999.90;999.90;;;18.50;99.90;;;;;;5014620;28;20046;-75
2023/07/01 00:13:33;;;;;;;1999.90;999.90;;;18.50;99.90;;;;;;5013086;28;20325;-75
2023/07/01 00:15:58;;;;;;;1999.90;999.90;;;18.40;99.90;;;;;;5014501;28;20034;-75
2023/07/01 00:18:24;;;;;;;1999.90;999.90;;;18.40;99.90;;;;;;5013067;28;20089;-75
2023/07/01 00:20:50;;;;;;;1999.90;999.90;;;18.30;99.90;;;;;;5014396;28;20480;-75
2023/07/01 00:23:15;;;;;;;1999.90;999.90;;;18.30;99.90;;;;;;5014115;28;20035;-75
2023/07/01 00:25:41;;;;;;;1999.90;999.90;;;18.20;99.90;;;;;;5012703;28;20034;-75
2023/07/01 00:28:06;;;;;;;1999.90;999.90;;;18.10;99.90;;;;;;5014517;28;20101;-75
2023/07/01 00:30:32;;;;;;;1999.90;999.90;;;18.00;99.90;;;;;;5014566;28;20044;-75
2023/07/01 00:32:57;;;;;;;1999.90;999.90;;;17.90;99.90;;;;;;5012641;28;20134;-75
2023/07/01 00:35:23;;;;;;;1999.90;999.90;;;17.90;99.90;;;;;;5014274;28;20034;-75
2023/07/01 00:37:48;;;;;;;1999.90;999.90;;;17.80;99.90;;;;;;5012857;28;20133;-74
2023/07/01 00:40:14;;;;;;;1999.90;999.90;;;17.70;99.90;;;;;;5014970;28;20488;-75
2023/07/01 00:42:39;;;;;;;1999.90;999.90;;;17.70;99.90;;;;;;5012685;28;20476;-75
2023/07/01 00:45:05;;;;;;;1999.90;999.90;;;17.60;99.90;;;;;;5013898;28;20097;-75
2023/07/01 00:47:31;;;;;;;1999.90;999.90;;;17.50;99.90;;;;;;5015821;28;20491;-75
2023/07/01 00:49:57;;;;;;;1999.90;999.90;;;17.40;99.90;;;;;;5017744;28;20039;-75
2023/07/01 00:52:23;;;;;;;1999.90;999.90;;;17.30;99.90;;;;;;5017427;28;20038;-75
2023/07/01 00:54:48;;;;;;;1999.90;999.90;;;17.20;99.90;;;;;;5017380;28;20039;-75
2023/07/01 00:57:14;;;;;;;1999.90;999.90;;;17.00;99.90;;;;;;5017502;28;20539;-75
2023/07/01 00:59:40;;;;;;;1999.90;999.90;;;16.90;99.90;;;;;;5017406;28;20544;-75
2023/07/01 01:02:27;;;;;;;1999.90;999.90;;;16.80;99.90;;;;;;5017209;28;20102;-75
2023/07/01 01:05:10;;;;;;;1999.90;999.90;;;16.80;99.90;;;;;;5016829;28;20042;-75
2023/07/01 01:07:45;;;;;;;1999.90;999.90;;;16.70;99.90;;;;;;5017457;28;20109;-75
2023/07/01 01:10:23;;;;;;;1999.90;999.90;;;16.70;99.90;;;;;;5017551;28;20121;-75
2023/07/01 01:12:56;;;;;;;1999.90;999.90;;;16.70;99.90;;;;;;5015603;28;20492;-75
2023/07/01 01:15:22;;;;;;;1999.90;999.90;;;16.60;99.90;;;;;;5016690;28;20042;-75
2023/07/01 01:17:51;;;;;;;1999.90;999.90;;;16.60;99.90;;;;;;5017225;28;20080;-75
2023/07/01 01:20:20;;;;;;;1999.90;999.90;;;16.60;99.90;;;;;;5015649;28;20085;-75
2023/07/01 01:22:55;;;;;;;1999.90;999.90;;;16.50;99.90;;;;;;5015405;28;20038;-75
2023/07/01 01:25:31;;;;;;;1999.90;999.90;;;16.50;99.90;;;;;;5015409;28;20084;-75
2023/07/01 01:27:57;;;;;;;1999.90;999.90;;;16.50;99.90;;;;;;5017183;28;20101;-75
2023/07/01 01:30:23;;;;;;;1999.90;999.90;;;16.50;99.90;;;;;;5017126;28;20070;-75
2023/07/01 01:32:49;;;;;;;1999.90;999.90;;;16.40;99.90;;;;;;5016828;28;20460;-75
2023/07/01 01:35:15;;;;;;;1999.90;999.90;;;16.40;99.90;;;;;;5016652;28;20034;-75
2023/07/01 01:37:40;;;;;;;1999.90;999.90;;;16.30;99.90;;;;;;5016938;28;20480;-75
2023/07/01 01:40:17;;;;;;;1999.90;999.90;;;16.20;99.90;;;;;;5016873;28;20125;-75
2023/07/01 01:42:44;;;;;;;1999.90;999.90;;;16.20;99.90;;;;;;5016650;28;20097;-75
2023/07/01 01:45:12;;;;;;;1999.90;999.90;;;16.20;99.90;;;;;;5016470;28;20037;-75
2023/07/01 01:47:38;;;;;;;1999.90;999.90;;;16.20;99.90;;;;;;5016197;28;20455;-76
2023/07/01 01:50:08;;;;;;;1999.90;999.90;;;16.20;99.90;;;;;;5016564;28;20045;-76
2023/07/01 01:52:34;;;;;;;1999.90;999.90;;;16.20;99.90;;;;;;5015699;28;20120;-76
2023/07/01 01:55:00;;;;;;;1999.90;999.90;;;16.20;99.90;;;;;;5016273;28;20853;-76
2023/07/01 01:57:26;;;;;;;1999.90;999.90;;;16.20;99.90;;;;;;5016509;28;20121;-76
2023/07/01 01:59:52;;;;;;;1999.90;999.90;;;16.20;99.90;;;;;;5015541;28;20125;-76
2023/07/01 02:02:17;;;;;;;1999.90;999.90;;;16.30;99.90;;;;;;5014741;28;20488;-76
2023/07/01 02:04:43;;;;;;;1999.90;999.90;;;16.20;99.90;;;;;;5016665;28;20421;-77
2023/07/01 02:07:08;;;;;;;1999.90;999.90;;;16.30;99.90;;;;;;5016467;28;20030;-77
2023/07/01 02:09:34;;;;;;;1999.90;999.90;;;16.10;99.90;;;;;;5014630;28;20396;-76
2023/07/01 02:11:59;;;;;;;1999.90;999.90;;;16.10;99.90;;;;;;5015952;28;20041;-76
2023/07/01 02:14:25;;;;;;;1999.90;999.90;;;16.00;99.90;;;;;;5015719;28;20034;-77
2023/07/01 02:16:51;;;;;;;1999.90;999.90;;;16.00;99.90;;;;;;5016353;28;20388;-76
2023/07/01 02:19:18;;;;;;;1999.90;999.90;;;15.90;99.90;;;;;;5015804;28;20136;-76
2023/07/01 02:21:44;;;;;;;1999.90;999.90;;;15.80;99.90;;;;;;5015882;28;20073;-77
2023/07/01 02:24:09;;;;;;;1999.90;999.90;;;15.80;99.90;;;;;;5014430;28;20042;-76
2023/07/01 02:26:35;;;;;;;1999.90;999.90;;;15.70;99.90;;;;;;5014369;28;20038;-76
2023/07/01 02:29:01;;;;;;;1999.90;999.90;;;15.70;99.90;;;;;;5015950;28;20097;-77
2023/07/01 02:31:27;;;;;;;1999.90;999.90;;;15.60;99.90;;;;;;5015842;28;20040;-76
2023/07/01 02:34:00;;;;;;;1999.90;999.90;;;15.60;99.90;;;;;;5015939;28;20539;-77
2023/07/01 02:36:25;;;;;;;1999.90;999.90;;;15.60;99.90;;;;;;5016004;28;20030;-76
2023/07/01 02:38:51;;;;;;;1999.90;999.90;;;15.60;99.90;;;;;;5015633;28;20056;-76
2023/07/01 02:41:17;;;;;;;1999.90;999.90;;;15.60;99.90;;;;;;5015599;28;20039;-76
2023/07/01 02:43:42;;;;;;;1999.90;999.90;;;15.60;99.90;;;;;;5015263;28;20034;-76
2023/07/01 02:46:08;;;;;;;1999.90;999.90;;;15.50;99.90;;;;;;5015585;28;20085;-76
2023/07/01 02:48:33;;;;;;;1999.90;999.90;;;15.50;99.90;;;;;;5015853;28;20066;-76
2023/07/01 02:50:59;;;;;;;1999.90;999.90;;;15.50;99.90;;;;;;5013897;28;20045;-76
2023/07/01 02:53:24;;;;;;;1999.90;999.90;;;15.40;99.90;;;;;;5015370;28;20088;-76
2023/07/01 02:55:50;;;;;;;1999.90;999.90;;;15.40;99.90;;;;;;5015699;28;20042;-76
2023/07/01 02:58:15;;;;;;;1999.90;999.90;;;15.30;99.90;;;;;;5014177;28;20036;-76
2023/07/01 03:00:41;;;;;;;1999.90;999.90;;;15.30;99.90;;;;;;5015484;28;20038;-76
2023/07/01 03:03:06;;;;;;;1999.90;999.90;;;15.20;99.90;;;;;;5015290;28;20034;-76
2023/07/01 03:05:33;;;;;;;1999.90;999.90;;;15.20;99.90;;;;;;5013317;28;20034;-76
2023/07/01 03:07:59;;;;;;;1999.90;999.90;;;15.10;99.90;;;;;;5015420;28;20026;-76
2023/07/01 03:10:24;;;;;;;1999.90;999.90;;;15.00;99.90;;;;;;5015051;28;20503;-76
2023/07/01 03:12:50;;;;;;;1999.90;999.90;;;15.00;99.90;;;;;;5015093;28;20369;-76
2023/07/01 03:15:15;;;;;;;1999.90;999.90;;;14.90;99.90;;;;;;5015207;28;20117;-76
2023/07/01 03:17:41;;;;;;;1999.90;999.90;;;14.90;99.90;;;;;;5015307;28;20054;-76
2023/07/01 03:20:08;;;;;;;1999.90;999.90;;;14.80;99.90;;;;;;5013696;28;20046;-76
2023/07/01 03:22:33;;;;;;;1999.90;999.90;;;14.80;99.90;;;;;;5014776;28;20050;-76
2023/07/01 03:24:59;;;;;;;1999.90;999.90;;;14.80;99.90;;;;;;5014775;28;20413;-76
2023/07/01 03:27:24;;;;;;;1999.90;999.90;;;14.70;99.90;;;;;;5015149;28;20062;-76
2023/07/01 03:29:52;;;;;;;1999.90;999.90;;;14.70;99.90;;;;;;5015188;28;20043;-76
2023/07/01 03:32:17;;;;;;;1999.90;999.90;;;14.60;99.90;;;;;;5014712;28;20030;-76
2023/07/01 03:34:43;;;;;;;1999.90;999.90;;;14.50;99.90;;;;;;5014570;28;20041;-76
2023/07/01 03:37:08;;;;;;;1999.90;999.90;;;14.60;99.90;;;;;;5014928;28;20030;-76
2023/07/01 03:39:34;;;;;;;1999.90;999.90;;;14.60;99.90;;;;;;5013290;28;20488;-76
2023/07/01 03:41:59;;;;;;;1999.90;999.90;;;14.60;99.90;;;;;;5014605;28;20062;-76
2023/07/01 03:44:25;;;;;;;1999.90;999.90;;;14.60;99.90;;;;;;5014902;28;20034;-76
2023/07/01 03:46:50;;;;;;;1999.90;999.90;;;14.50;99.90;;;;;;5013386;28;20035;-76
2023/07/01 03:49:16;;;;;;;1999.90;999.90;;;14.50;99.90;;;;;;5014922;28;20045;-76
2023/07/01 03:51:43;;;;;;;1999.90;999.90;;;14.40;99.90;;;;;;5014418;28;20033;-76
2023/07/01 03:54:08;;;;;;;1999.90;999.90;;;14.40;99.90;;;;;;5014662;28;20030;-76
2023/07/01 03:56:34;;;;;;;1999.90;999.90;;;14.30;99.90;;;;;;5013134;28;20041;-76
2023/07/01 03:58:59;;;;;;;1999.90;999.90;;;14.20;99.90;;;;;;5013223;28;20118;-76
2023/07/01 04:01:26;;;;;;;1999.90;999.90;;;14.20;99.90;;;;;;5014421;28;20042;-74
2023/07/01 04:03:53;;;;;;;1999.90;999.90;;;14.20;99.90;;;;;;5013477;28;20022;-76
2023/07/01 04:06:18;;;;;;;1999.90;999.90;;;14.20;99.90;;;;;;5014587;28;20121;-76
2023/07/01 04:08:44;;;;;;;1999.90;999.90;;;14.20;99.90;;;;;;5014723;28;20035;-76
2023/07/01 04:11:09;;;;;;;1999.90;999.90;;;14.30;99.90;;;;;;5014472;28;20030;-76
2023/07/01 04:13:35;;;;;;;1999.90;999.90;;;14.40;99.90;;;;;;5015082;28;20026;-75
2023/07/01 04:16:00;;;;;;;1999.90;999.90;;;14.40;99.90;;;;;;5014992;28;20540;-76
2023/07/01 04:18:26;;;;;;;1999.90;999.90;;;14.40;99.90;;;;;;5013258;28;20534;-76
2023/07/01 04:20:53;;;;;;;1999.90;999.90;;;14.40;99.90;;;;;;5014383;28;20100;-76
2023/07/01 04:23:19;;;;;;;1999.90;999.90;;;14.50;99.90;;;;;;5015758;28;20471;-76
2023/07/01 04:25:44;;;;;;;1999.90;999.90;;;14.50;99.90;;;;;;5017626;28;20034;-76
2023/07/01 04:28:10;;;;;;;1999.90;999.90;;;14.60;99.90;;;;;;5017671;28;21383;-76
2023/07/01 04:30:35;;;;;;;1999.90;999.90;;;14.80;99.90;;;;;;5017787;28;20031;-76
2023/07/01 04:33:01;;;;;;;1999.90;999.90;;;15.00;99.90;;;;;;5017623;28;20034;-76
2023/07/01 04:35:26;;;;;;;1999.90;999.90;;;15.20;99.90;;;;;;5016090;28;20496;-76
2023/07/01 04:37:52;;;;;;;1999.90;999.90;;;15.40;99.90;;;;;;5017615;28;20038;-76
2023/07/01 04:40:17;;;;;;;1999.90;999.90;;;15.50;99.90;;;;;;5017589;28;20038;-76
2023/07/01 04:42:49;;;;;;;1999.90;999.90;;;15.60;99.90;;;;;;5015834;28;20056;-76
2023/07/01 04:45:14;;;;;;;1999.90;999.90;;;15.70;99.90;;;;;;5017497;28;20510;-76
2023/07/01 04:47:40;;;;;;;1999.90;999.90;;;15.70;99.90;;;;;;5017618;28;20038;-76
2023/07/01 04:50:06;;;;;;;1999.90;999.90;;;15.80;99.90;;;;;;5017602;28;20030;-76
2023/07/01 04:52:32;;;;;;;1999.90;999.90;;;15.80;99.90;;;;;;5017044;28;20037;-76
2023/07/01 04:54:57;;;;;;;1999.90;999.90;;;15.80;99.90;;;;;;5017240;28;20508;-76
2023/07/01 04:57:23;;;;;;;1999.90;999.90;;;16.00;99.90;;;;;;5015988;28;20027;-76
2023/07/01 04:59:48;;;;;;;1999.90;999.90;;;16.00;99.90;;;;;;5017440;28;20034;-76
2023/07/01 05:02:13;;;;;;;1999.90;999.90;;;16.10;99.90;;;;;;5016994;28;20030;-76
2023/07/01 05:04:39;;;;;;;1999.90;999.90;;;16.10;99.90;;;;;;5016963;28;20039;-76
2023/07/01 05:07:05;;;;;;;1999.90;999.90;;;16.20;99.90;;;;;;5017239;28;20038;-76
2023/07/01 05:09:31;;;;;;;1999.90;999.90;;;16.20;99.90;;;;;;5015657;28;20069;-76
2023/07/01 05:11:56;;;;;;;1999.90;999.90;;;16.30;99.90;;;;;;5016801;28;20061;-76
2023/07/01 05:14:21;;;;;;;1999.90;999.90;;;16.50;99.90;;;;;;5017004;28;20042;-76
2023/07/01 05:16:47;;;;;;;1999.90;999.90;;;16.50;99.90;;;;;;5017268;28;20042;-75
2023/07/01 05:19:13;;;;;;;1999.90;999.90;;;16.60;99.90;;;;;;5017030;28;20045;-76
2023/07/01 05:21:50;;;;;;;1999.90;999.90;;;16.70;99.90;;;;;;5016434;28;20030;-76
2023/07/01 05:24:16;;;;;;;1999.90;999.90;;;16.80;99.90;;;;;;5017000;28;20029;-76
2023/07/01 05:26:51;;;;;;;1999.90;999.90;;;16.90;99.90;;;;;;5015532;28;20040;-76
2023/07/01 05:29:20;;;;;;;1999.90;999.90;;;16.90;99.90;;;;;;5016956;28;20113;-76
2023/07/01 05:31:48;;;;;;;1999.90;999.90;;;17.00;99.90;;;;;;5016625;28;20035;-76
2023/07/01 05:34:14;;;;;;;1999.90;999.90;;;17.10;99.90;;;;;;5015171;28;20507;-76
2023/07/01 05:36:39;;;;;;;1999.90;999.90;;;17.20;99.90;;;;;;5016821;28;20041;-76
2023/07/01 05:39:05;;;;;;;1999.90;999.90;;;17.30;99.90;;;;;;5016473;28;20038;-76
2023/07/01 05:41:31;;;;;;;1999.90;999.90;;;17.30;99.90;;;;;;5016253;28;20140;-76
2023/07/01 05:43:56;;;;;;;1999.90;999.90;;;17.40;99.90;;;;;;5016435;28;20026;-76
2023/07/01 05:46:22;;;;;;;1999.90;999.90;;;17.40;99.90;;;;;;5016608;28;20038;-75
2023/07/01 05:48:47;;;;;;;1999.90;999.90;;;17.50;99.90;;;;;;5016650;28;20034;-76
2023/07/01 05:51:13;;;;;;;1999.90;999.90;;;17.60;99.90;;;;;;5015995;28;20026;-76
2023/07/01 05:53:39;;;;;;;1999.90;999.90;;;17.60;99.90;;;;;;5016506;28;20030;-76
2023/07/01 05:56:04;;;;;;;1999.90;999.90;;;17.70;99.90;;;;;;5016588;28;20117;-76
2023/07/01 05:58:30;;;;;;;1999.90;999.90;;;17.80;99.90;;;;;;5014976;28;20031;-76
2023/07/01 06:00:55;;;;;;;1999.90;999.90;;;17.80;99.90;;;;;;5015999;28;20074;-76
2023/07/01 06:03:21;;;;;;;1999.90;999.90;;;18.00;99.90;;;;;;5016526;28;20514;-76
2023/07/01 06:05:46;;;;;;;1999.90;999.90;;;18.00;99.90;;;;;;5014306;28;20631;-76
2023/07/01 06:08:12;;;;;;;1999.90;999.90;;;18.10;99.90;;;;;;5016391;28;20034;-76
2023/07/01 06:10:37;;;;;;;1999.90;999.90;;;18.20;99.90;;;;;;5015872;28;20113;-76
2023/07/01 06:13:03;;;;;;;1999.90;999.90;;;18.20;99.90;;;;;;5014560;28;20034;-76
2023/07/01 06:15:28;;;;;;;1999.90;999.90;;;18.20;99.90;;;;;;5014399;28;20374;-76
2023/07/01 06:17:54;;;;;;;1999.90;999.90;;;18.30;99.90;;;;;;5016051;28;20030;-76
2023/07/01 06:20:19;;;;;;;1999.90;999.90;;;18.40;99.90;;;;;;5015952;28;20403;-76
2023/07/01 06:22:45;;;;;;;1999.90;999.90;;;18.50;99.80;;;;;;5015935;28;20037;-76
2023/07/01 06:25:10;;;;;;;1999.90;999.90;;;18.60;99.50;;;;;;5015931;28;20042;-76
2023/07/01 06:27:37;;;;;;;1999.90;999.90;;;18.70;99.40;;;;;;5015920;28;20373;-76
2023/07/01 06:30:03;;;;;;;1999.90;999.90;;;18.70;99.40;;;;;;5016079;28;20109;-76
2023/07/01 06:32:29;;;;;;;1999.90;999.90;;;18.80;98.80;;;;;;5015994;28;20484;-76
2023/07/01 06:34:55;;;;;;;1999.90;999.90;;;18.90;99.20;;;;;;5015882;28;20042;-76
2023/07/01 06:37:21;;;;;;;1999.90;999.90;;;19.00;98.20;;;;;;5015646;28;20037;-77
2023/07/01 06:39:46;;;;;;;1999.90;999.90;;;19.00;98.60;;;;;;5015675;28;20112;-76
2023/07/01 06:42:12;;;;;;;1999.90;999.90;;;19.20;98.20;;;;;;5015430;28;20026;-76
2023/07/01 06:44:38;;;;;;;1999.90;999.90;;;19.30;97.40;;;;;;5015034;28;20038;-77
2023/07/01 06:47:04;;;;;;;1999.90;999.90;;;19.50;96.70;;;;;;5015802;28;20062;-76
2023/07/01 06:49:30;;;;;;;1999.90;999.90;;;19.60;95.80;;;;;;5013948;28;20030;-75
2023/07/01 06:51:55;;;;;;;1999.90;999.90;;;19.80;96.30;;;;;;5015364;28;20030;-76
2023/07/01 06:54:21;;;;;;;1999.90;999.90;;;20.00;95.40;;;;;;5015355;28;20038;-76
2023/07/01 06:56:46;;;;;;;1999.90;999.90;;;20.20;95.00;;;;;;5015297;28;20472;-76
2023/07/01 06:59:12;;;;;;;1999.90;999.90;;;20.50;93.60;;;;;;5015475;28;20073;-76
2023/07/01 07:01:37;;;;;;;1999.90;999.90;;;20.80;94.00;;;;;;5015047;28;20113;-76
2023/07/01 07:04:03;;;;;;;1999.90;999.90;;;21.00;92.80;;;;;;5015160;28;20049;-76
2023/07/01 07:06:29;;;;;;;1999.90;999.90;;;21.20;92.00;;;;;;5015505;28;20089;-77
2023/07/01 07:08:54;;;;;;;1999.90;999.90;;;21.30;91.70;;;;;;5013838;28;20022;-74
2023/07/01 07:11:20;;;;;;;1999.90;999.90;;;21.40;92.30;;;;;;5014810;28;20034;-76
2023/07/01 07:13:45;;;;;;;1999.90;999.90;;;21.50;90.80;;;;;;5013115;28;20392;-76
2023/07/01 07:16:11;;;;;;;1999.90;999.90;;;21.60;90.50;;;;;;5015211;28;20038;-78
2023/07/01 07:18:36;;;;;;;1999.90;999.90;;;21.60;90.70;;;;;;5015367;28;20080;-77
2023/07/01 07:21:02;;;;;;;1999.90;999.90;;;21.90;90.30;;;;;;5014625;28;20074;-76
2023/07/01 07:23:27;;;;;;;1999.90;999.90;;;21.80;89.10;;;;;;5014918;28;20050;-74
2023/07/01 07:25:53;;;;;;;1999.90;999.90;;;21.80;88.10;;;;;;5015033;28;20042;-75
2023/07/01 07:28:18;;;;;;;1999.90;999.90;;;21.70;89.90;;;;;;5013429;28;20485;-78
2023/07/01 07:30:44;;;;;;;1999.90;999.90;;;21.70;88.20;;;;;;5014664;28;20403;-78
2023/07/01 07:33:09;;;;;;;1999.90;999.90;;;21.80;88.60;;;;;;5013237;28;20488;-77
2023/07/01 07:35:35;;;;;;;1999.90;999.90;;;21.90;88.50;;;;;;5013312;28;20057;-77
2023/07/01 07:38:00;;;;;;;1999.90;999.90;;;21.90;87.10;;;;;;5014996;28;20034;-78
2023/07/01 07:40:26;;;;;;;1999.90;999.90;;;21.90;85.00;;;;;;5015097;28;20046;-77
2023/07/01 07:42:53;;;;;;;1999.90;999.90;;;21.90;86.10;;;;;;5013067;28;20151;-80
2023/07/01 07:45:22;;;;;;;1999.90;999.90;;;22.10;86.60;;;;;;5014918;28;20030;-78
2023/07/01 07:47:48;;;;;;;1999.90;999.90;;;22.00;87.30;;;;;;5014801;28;20031;-78
2023/07/01 07:50:13;;;;;;;1999.90;999.90;;;22.00;86.40;;;;;;5015243;28;20035;-77
2023/07/01 07:52:39;;;;;;;1999.90;999.90;;;22.10;86.40;;;;;;5014856;28;20117;-78
2023/07/01 07:55:05;;;;;;;1999.90;999.90;;;21.80;85.00;;;;;;5013080;28;20416;-77
2023/07/01 07:57:31;;;;;;;1999.90;999.90;;;21.60;86.90;;;;;;5012250;28;20085;-77
2023/07/01 07:59:56;;;;;;;1999.90;999.90;;;21.50;86.90;;;;;;5014809;28;20384;-78
2023/07/01 08:02:22;;;;;;;1999.90;999.90;;;21.30;87.10;;;;;;5014415;28;20045;-77
2023/07/01 08:04:48;;;;;;;1999.90;999.90;;;21.40;86.80;;;;;;5013072;28;20065;-76
2023/07/01 08:07:14;;;;;;;1999.90;999.90;;;21.60;86.00;;;;;;5013558;28;20027;-78
2023/07/01 08:09:39;;;;;;;1999.90;999.90;;;21.70;86.30;;;;;;5014939;28;20033;-77
2023/07/01 08:12:06;;;;;;;1999.90;999.90;;;21.90;86.10;;;;;;5014452;28;20093;-77
2023/07/01 08:14:31;;;;;;;1999.90;999.90;;;22.20;84.10;;;;;;5014464;28;20117;-77
2023/07/01 08:16:59;;;;;;;1999.90;999.90;;;22.40;82.60;;;;;;5014503;28;20102;-77
2023/07/01 08:19:24;;;;;;;1999.90;999.90;;;22.50;83.00;;;;;;5014160;28;20074;-77
2023/07/01 08:21:50;;;;;;;1999.90;999.90;;;22.40;82.40;;;;;;5014145;28;20469;-77
2023/07/01 08:24:16;;;;;;;1999.90;999.90;;;22.40;83.20;;;;;;5014141;28;20038;-77
2023/07/01 08:26:42;;;;;;;1999.90;999.90;;;22.90;82.40;;;;;;5013534;28;20039;-77
2023/07/01 08:29:09;;;;;;;1999.90;999.90;;;23.20;80.80;;;;;;5014155;28;20066;-78
2023/07/01 08:31:36;;;;;;;1999.90;999.90;;;23.20;81.00;;;;;;5013782;28;20062;-78
2023/07/01 08:34:02;;;;;;;1999.90;999.90;;;23.60;80.40;;;;;;5013857;28;20038;-77
2023/07/01 08:36:28;;;;;;;1999.90;999.90;;;23.70;79.10;;;;;;5014269;28;20031;-78
2023/07/01 08:38:54;;;;;;;1999.90;999.90;;;23.70;78.90;;;;;;5014487;28;20038;-78
2023/07/01 08:41:23;;;;;;;1999.90;999.90;;;23.80;78.70;;;;;;5014122;28;20520;-77
2023/07/01 08:43:51;;;;;;;1999.90;999.90;;;23.50;76.30;;;;;;5013784;28;20041;-77
2023/07/01 08:46:19;;;;;;;1999.90;999.90;;;23.60;80.20;;;;;;5013779;28;20035;-77
2023/07/01 08:48:46;;;;;;;1999.90;999.90;;;23.60;76.50;;;;;;5014276;28;20059;-78
2023/07/01 08:51:31;;;;;;;1999.90;999.90;;;23.20;77.20;;;;;;5013769;28;20066;-77
2023/07/01 08:53:59;;;;;;;1999.90;999.90;;;23.40;77.50;;;;;;5012320;28;20189;-77
2023/07/01 08:56:25;;;;;;;1999.90;999.90;;;23.80;77.00;;;;;;5013641;28;20484;-77
2023/07/01 08:58:50;;;;;;;1999.90;999.90;;;23.80;77.00;;;;;;5014085;28;20045;-77
2023/07/01 09:01:17;;;;;;;1999.90;999.90;;;23.80;75.70;;;;;;5013553;28;20054;-77
2023/07/01 09:03:46;;;;;;;1999.90;999.90;;;23.70;75.40;;;;;;5013633;28;20031;-76
2023/07/01 09:06:12;;;;;;;1999.90;999.90;;;23.90;76.50;;;;;;5014370;28;20033;-79
2023/07/01 09:08:38;;;;;;;1999.90;999.90;;;24.40;75.80;;;;;;5015816;28;20030;-78
2023/07/01 09:11:11;;;;;;;1999.90;999.90;;;24.30;75.00;;;;;;5017303;28;20062;-78
2023/07/01 09:13:36;;;;;;;1999.90;999.90;;;24.80;74.00;;;;;;5017236;28;20531;-76
2023/07/01 09:16:02;;;;;;;1999.90;999.90;;;24.70;74.10;;;;;;5015516;28;20047;-79
2023/07/01 09:18:29;;;;;;;1999.90;999.90;;;24.70;73.90;;;;;;5017027;28;20056;-78
2023/07/01 09:20:56;;;;;;;1999.90;999.90;;;24.50;73.30;;;;;;5016612;28;20050;-79
2023/07/01 09:23:35;;;;;;;1999.90;999.90;;;24.70;75.30;;;;;;5017204;28;20492;-78
2023/07/01 09:26:07;;;;;;;1999.90;999.90;;;24.50;74.10;;;;;;5016859;28;20042;-76
2023/07/01 09:28:33;;;;;;;1999.90;999.90;;;24.10;73.40;;;;;;5018694;28;20022;-81
2023/07/01 09:31:04;;;;;;;1999.90;999.90;;;24.00;74.20;;;;;;5018105;28;20042;-80
2023/07/01 09:33:31;;;;;;;1999.90;999.90;;;24.20;73.80;;;;;;5017585;28;20038;-80
2023/07/01 09:36:01;;;;;;;1999.90;999.90;;;24.30;72.40;;;;;;5018010;28;20081;-80
2023/07/01 09:38:27;;;;;;;1999.90;999.90;;;24.40;72.20;;;;;;5016648;28;20074;-79
2023/07/01 09:40:53;;;;;;;1999.90;999.90;;;24.60;73.20;;;;;;5018041;28;20086;-80
2023/07/01 09:43:19;;;;;;;1999.90;999.90;;;24.70;71.10;;;;;;5018269;28;20551;-79
2023/07/01 09:45:55;;;;;;;1999.90;999.90;;;25.10;70.40;;;;;;5016353;28;20058;-79
2023/07/01 09:48:21;;;;;;;1999.90;999.90;;;25.20;72.00;;;;;;5018209;28;20477;-81
2023/07/01 09:50:49;;;;;;;1999.90;999.90;;;25.50;69.30;;;;;;5018332;28;20026;-79
2023/07/01 09:53:22;;;;;;;1999.90;999.90;;;25.70;71.20;;;;;;5018090;28;20085;-80
2023/07/01 09:55:48;;;;;;;1999.90;999.90;;;25.70;69.60;;;;;;5018118;28;20123;-82
2023/07/01 09:58:15;;;;;;;1999.90;999.90;;;26.20;70.00;;;;;;5016983;28;20101;-81
2023/07/01 10:00:41;;;;;;;1999.90;999.90;;;26.30;67.50;;;;;;5017176;28;20042;-82
2023/07/01 10:03:07;;;;;;;1999.90;999.90;;;25.70;67.70;;;;;;5019030;28;20035;-81
2023/07/01 10:05:36;;;;;;;1999.90;999.90;;;25.60;66.40;;;;;;5017671;28;20038;-83
2023/07/01 10:08:02;;;;;;;1999.90;999.90;;;25.90;66.70;;;;;;5018908;28;20477;-84
2023/07/01 10:10:28;;;;;;;1999.90;999.90;;;25.90;65.50;;;;;;5019156;28;20041;-80
2023/07/01 10:12:57;;;;;;;1999.90;999.90;;;25.60;67.40;;;;;;5017729;28;20113;-81
2023/07/01 10:15:26;;;;;;;1999.90;999.90;;;25.80;66.00;;;;;;5017559;28;20488;-81
2023/07/01 10:17:55;;;;;;;1999.90;999.90;;;25.90;67.40;;;;;;5017879;28;20038;-83
2023/07/01 10:20:23;;;;;;;1999.90;999.90;;;26.50;65.00;;;;;;5019924;28;20042;-80
2023/07/01 10:22:56;;;;;;;1999.90;999.90;;;26.50;65.10;;;;;;5018060;28;20022;-79
2023/07/01 10:25:38;;;;;;;1999.90;999.90;;;26.70;66.10;;;;;;5018226;28;20037;-81
2023/07/01 10:28:08;;;;;;;1999.90;999.90;;;27.40;65.40;;;;;;5018853;28;20121;-79
2023/07/01 10:30:46;;;;;;;1999.90;999.90;;;27.40;63.10;;;;;;5018083;28;20046;-81
2023/07/01 10:33:30;;;;;;;1999.90;999.90;;;27.30;64.50;;;;;;5017193;28;20121;-79
2023/07/01 10:36:10;;;;;;;1999.90;999.90;;;27.20;64.60;;;;;;5018413;28;20034;-80
2023/07/01 10:38:37;;;;;;;1999.90;999.90;;;27.00;64.50;;;;;;5016627;28;20044;-80
2023/07/01 10:41:03;;;;;;;1999.90;999.90;;;26.70;65.00;;;;;;5016731;28;20042;-80
2023/07/01 10:43:36;;;;;;;1999.90;999.90;;;26.80;64.60;;;;;;5021144;28;20054;-80
2023/07/01 10:46:20;;;;;;;1999.90;999.90;;;27.20;64.50;;;;;;5024018;28;20065;-80
2023/07/01 10:49:03;;;;;;;1999.90;999.90;;;27.60;63.90;;;;;;5017851;28;20038;-80
2023/07/01 10:51:32;;;;;;;1999.90;999.90;;;27.60;61.80;;;;;;5016717;28;20030;-80
2023/07/01 10:54:04;;;;;;;1999.90;999.90;;;27.40;62.50;;;;;;5016861;28;20447;-80
2023/07/01 10:56:29;;;;;;;1999.90;999.90;;;27.50;61.40;;;;;;5018626;28;20487;-81
2023/07/01 10:59:17;;;;;;;1999.90;999.90;;;27.60;59.20;;;;;;5018228;28;20073;-79
2023/07/01 11:01:45;;;;;;;1999.90;999.90;;;27.00;60.50;;;;;;5033260;28;20042;-80
2023/07/01 11:04:11;;;;;;;1999.90;999.90;;;27.10;63.10;;;;;;5038060;28;20040;-80
2023/07/01 11:06:51;;;;;;;1999.90;999.90;;;26.50;61.80;;;;;;5038209;28;20117;-80
2023/07/01 11:09:27;;;;;;;1999.90;999.90;;;26.40;64.10;;;;;;5038897;28;20061;-81
2023/07/01 11:11:53;;;;;;;1999.90;999.90;;;26.30;64.20;;;;;;5038849;28;20030;-81
2023/07/01 11:14:20;;;;;;;1999.90;999.90;;;26.20;65.00;;;;;;5033894;28;20045;-78
2023/07/01 11:16:46;;;;;;;1999.90;999.90;;;26.10;65.30;;;;;;5023920;28;20040;-81
2023/07/01 11:19:15;;;;;;;1999.90;999.90;;;25.90;66.40;;;;;;5034462;28;20113;-80
2023/07/01 11:21:43;;;;;;;1999.90;999.90;;;25.10;69.00;;;;;;5035794;28;20076;-81
2023/07/01 11:24:10;;;;;;;1999.90;999.90;;;25.00;69.80;;;;;;5039298;28;20034;-79
2023/07/01 11:26:37;;;;;;;1999.90;999.90;;;25.00;71.40;;;;;;5038165;28;20022;-81
2023/07/01 11:29:09;;;;;;;1999.90;999.90;;;24.90;70.80;;;;;;5037010;28;20025;-80
2023/07/01 11:31:36;;;;;;;1999.90;999.90;;;24.60;71.10;;;;;;5034725;28;20478;-80
2023/07/01 11:34:02;;;;;;;1999.90;999.90;;;24.20;71.80;;;;;;5036186;28;20377;-80
2023/07/01 11:36:35;;;;;;;1999.90;999.90;;;24.20;73.90;;;;;;5036892;28;20044;-80
2023/07/01 11:39:06;;;;;;;1999.90;999.90;;;24.40;73.60;;;;;;5034734;28;20057;-80
2023/07/01 11:41:34;;;;;;;1999.90;999.90;;;24.50;72.60;;;;;;5034445;28;20069;-80
2023/07/01 11:43:59;;;;;;;1999.90;999.90;;;24.70;73.40;;;;;;5036232;28;20471;-80
2023/07/01 11:46:33;;;;;;;1999.90;999.90;;;24.40;73.60;;;;;;5036829;28;20108;-80
2023/07/01 11:49:11;;;;;;;1999.90;999.90;;;24.10;74.10;;;;;;5037111;28;20114;-80
2023/07/01 11:51:37;;;;;;;1999.90;999.90;;;24.00;74.70;;;;;;5036484;28;20045;-79
2023/07/01 11:54:03;;;;;;;1999.90;999.90;;;24.20;75.60;;;;;;5034614;28;20471;-80
2023/07/01 11:56:28;;;;;;;1999.90;999.90;;;24.10;74.30;;;;;;5036151;28;20038;-80
2023/07/01 11:58:54;;;;;;;1999.90;999.90;;;24.10;75.20;;;;;;5034480;28;20033;-81